INFORMACIÓN METAR y TAF
METAR FOR LEAL
ADDS - METARS form results

(1152 UTC 17 February 2020)
Data provider http://aviationweather.gov/metar/data/
 
METAR text: LEAL 171130Z 09005KT 060V140 CAVOK 17/12 Q1026 NOSIG
Conditions at: LEAL (ALICANTE/EL ALTE, ES) observed 1130 UTC 17 February 2020
Temperature: 17.0°C (63°F)
Dewpoint: 12.0°C (54°F) [RH = 72%]
Pressure (altimeter): 30.30 inches Hg (1026.0 mb)
Winds: from the E (90 degrees) at 6 MPH (5 knots; 2.6 m/s)
Visibility: 6 or more miles (10+ km)
Ceiling: ceiling and visibility are OK
Clouds: unknown
Weather: no significant weather observed at this time

METAR text: LEAL 171100Z 18004KT 100V250 CAVOK 17/11 Q1026 NOSIG
Conditions at: LEAL (ALICANTE/EL ALTE, ES) observed 1100 UTC 17 February 2020
Temperature: 17.0°C (63°F)
Dewpoint: 11.0°C (52°F) [RH = 68%]
Pressure (altimeter): 30.30 inches Hg (1026.0 mb)
Winds: from the S (180 degrees) at 5 MPH (4 knots; 2.1 m/s)
Visibility: 6 or more miles (10+ km)
Ceiling: ceiling and visibility are OK
Clouds: unknown
Weather: no significant weather observed at this time

Forecast for: LEAL (ALICANTE/EL ALTE, ES)
Text: TAF LEAL 171100Z 1712/1812 30008KT 9999 FEW020 TX23/1713Z TN10/1806Z
Forecast period: 1200 to 1800 UTC 17 February 2020
Forecast type: FROM: standard forecast or significant change
Winds: from the WNW (300 degrees) at 9 MPH (8 knots; 4.1 m/s)
Visibility: 6 or more miles 10+ km)
Ceiling: at least 12,000 feet AGL
Clouds: few clouds at 2000 feet AGL
Weather: no significant weather forecast for this period
Text: BECMG 1718/1720 04006KT
Forecast period: 1800 UTC 17 February 2020 to 1200 UTC 18 February 2020
Forecast type: BECOMING: Conditions expected to become as follows by 2000 UTC 17 February 2020
Winds: from the NE (40 degrees) at 7 MPH (6 knots; 3.1 m/s)
Visibility: 6 or more miles 10+ km)
Ceiling: at least 12,000 feet AGL
Clouds: few clouds at 2000 feet AGL
Weather: no significant weather forecast for this period
Text: PROB40
Forecast period: 0300 to 0800 UTC 18 February 2020
Forecast type: TEMPORARY: The following changes expected for less than half the time period
Visibility: 1.86 miles (2.99 km)
Ceiling: 1200 feet AGL
Clouds: broken clouds at 1200 feet AGL
Weather: BR  (mist)

 MAPA DE AEROPUERTO

 INFORMACIÓN DE PISTA
Pista 10 Longitud 9842 ft Ancho 148 ft
Elevación 142 ft Umbral desplazado 0 ft Rumbo de pista 100
Pista 28 Longitud 9842 ft Ancho 148 ft
Elevación 44 ft Umbral desplazado 0 ft Rumbo de pista 280

 FRECUANCIAS DEL AEROPUERTO
Tipo APP Nombre APP Frecuencia 118.8 MHZ
Tipo ATIS Nombre ATIS Frecuencia 113.8 MHZ
Tipo GND Nombre GND Frecuencia 121.7 MHZ
Tipo TWR Nombre TWR Frecuencia 118.15 MHZ

 RADIO AYUDAS DEL AEROPUERTO
Tipo VOR-DME Nombre Alicante Frecuencia 113800 KHZ
Tipo VOR-DME Nombre Alicante Frecuencia 114650 KHZ




Powered by Virtual Airlines Manager